Time;durP1;ratioP1;P1;durP2;ratioP2;P2;SDS_P1;SDS_P2;PMS_P1;PMS_P2;Temp;Humidity;BMP_temperature;BMP_pressure;BME280_temperature;BME280_humidity;BME280_pressure;Samples;Min_cycle;Max_cycle;Signal;HPM_P1;HPM_P2
2023/06/30 00:01:00;;;;;;;0.00;0.00;;;;;;;21.75;56.34;97058.81;4982752;28;20064;-75
2023/06/30 00:03:28;;;;;;;0.00;0.00;;;;;;;21.71;55.70;97057.75;4983885;28;20050;-74
2023/06/30 00:05:56;;;;;;;0.00;0.00;;;;;;;21.78;58.13;97063.69;4982230;28;20047;-74
2023/06/30 00:08:25;;;;;;;0.10;0.10;;;;;;;21.58;59.67;97057.28;4981248;28;20039;-75
2023/06/30 00:10:52;;;;;;;0.00;0.00;;;;;;;21.44;60.32;97056.22;4981774;28;20046;-75
2023/06/30 00:13:20;;;;;;;0.00;0.00;;;;;;;;;;4982883;28;20050;-75
2023/06/30 00:15:47;;;;;;;0.00;0.00;;;;;;;21.48;60.08;97064.66;4981875;28;20038;-75
2023/06/30 00:18:16;;;;;;;0.03;0.03;;;;;;;21.45;60.10;97055.16;4982410;28;20409;-76
2023/06/30 00:20:43;;;;;;;0.00;0.00;;;;;;;21.46;60.02;97045.91;4982772;28;20050;-76
2023/06/30 00:23:13;;;;;;;0.00;0.00;;;;;;;21.47;60.27;97047.53;4981420;28;20042;-76
2023/06/30 00:25:41;;;;;;;0.00;0.00;;;;;;;21.49;59.99;97044.56;4981948;28;20046;-76
2023/06/30 00:28:09;;;;;;;0.10;0.10;;;;;;;21.46;60.30;97040.47;4982683;28;20031;-77
2023/06/30 00:30:38;;;;;;;0.00;0.00;;;;;;;21.46;60.29;97043.19;4982750;28;20065;-76
2023/06/30 00:33:06;;;;;;;0.10;0.10;;;;;;;21.57;59.59;97035.81;4983377;28;20453;-76
2023/06/30 00:35:34;;;;;;;0.00;0.00;;;;;;;21.52;60.27;97036.63;4984774;28;20053;-76
2023/06/30 00:38:03;;;;;;;0.00;0.00;;;;;;;21.50;60.23;97032.56;4990784;28;20046;-76
2023/06/30 00:40:31;;;;;;;0.10;0.10;;;;;;;21.52;60.30;97033.09;4985732;28;20042;-76
2023/06/30 00:43:00;;;;;;;0.00;0.00;;;;;;;21.59;59.94;97028.22;4983140;28;20047;-76
2023/06/30 00:45:28;;;;;;;0.00;0.00;;;;;;;21.61;59.65;97032.25;4981459;28;20066;-75
2023/06/30 00:47:56;;;;;;;0.10;0.00;;;;;;;21.51;59.85;97026.84;4982267;28;20498;-77
2023/06/30 00:50:23;;;;;;;0.00;0.00;;;;;;;21.48;59.64;97027.44;4981750;28;20084;-76
2023/06/30 00:52:51;;;;;;;0.00;0.00;;;;;;;21.52;59.85;97027.69;4983418;28;20060;-77
2023/06/30 00:55:20;;;;;;;0.10;0.10;;;;;;;21.47;59.87;97028.53;4985265;28;20055;-76
2023/06/30 00:57:47;;;;;;;0.10;0.10;;;;;;;21.31;60.21;97032.38;4982321;28;20062;-76
2023/06/30 01:00:20;;;;;;;0.00;0.00;;;;;;;21.14;61.72;97026.44;4980426;28;20043;-76
2023/06/30 01:02:52;;;;;;;0.00;0.00;;;;;;;21.07;62.44;97025.94;4983361;28;20427;-76
2023/06/30 01:05:25;;;;;;;0.00;0.00;;;;;;;21.18;61.53;97022.91;4984390;28;20060;-77
2023/06/30 01:07:59;;;;;;;0.00;0.00;;;;;;;21.14;62.38;97021.81;4996952;28;20050;-76
2023/06/30 01:10:30;;;;;;;0.00;0.00;;;;;;;21.15;62.04;97022.63;4982122;28;20101;-76
2023/06/30 01:13:00;;;;;;;0.00;0.00;;;;;;;21.14;62.42;97018.28;4983722;28;20058;-77
2023/06/30 01:15:30;;;;;;;0.00;0.00;;;;;;;21.04;62.71;97016.44;4982080;28;20077;-75
2023/06/30 01:18:00;;;;;;;0.00;0.00;;;;;;;21.24;61.65;97026.44;4983155;28;20039;-76
2023/06/30 01:20:32;;;;;;;0.10;0.10;;;;;;;21.16;61.92;97018.84;4981008;28;20133;-75
2023/06/30 01:23:06;;;;;;;0.00;0.00;;;;;;;20.94;62.39;97018.34;4997599;28;20345;-76
2023/06/30 01:25:34;;;;;;;0.05;0.05;;;;;;;21.17;61.47;97018.56;4982966;28;20466;-76
2023/06/30 01:28:03;;;;;;;0.10;0.10;;;;;;;21.32;60.10;97017.72;4981478;28;20498;-75
2023/06/30 01:30:32;;;;;;;0.00;0.00;;;;;;;21.25;60.37;97009.06;4985171;28;20053;-75
2023/06/30 01:33:00;;;;;;;0.20;0.05;;;;;;;21.09;61.97;97008.25;4984480;28;20495;-76
2023/06/30 01:35:29;;;;;;;0.00;0.00;;;;;;;21.09;61.63;97002.00;4982682;28;20054;-77
2023/06/30 01:37:59;;;;;;;0.00;0.00;;;;;;;21.03;62.13;97001.22;4984756;28;20047;-76
2023/06/30 01:40:27;;;;;;;0.00;0.00;;;;;;;21.02;62.80;96993.34;4999518;28;20053;-77
2023/06/30 01:42:55;;;;;;;0.00;0.00;;;;;;;20.99;62.79;96994.72;5000846;28;20121;-76
2023/06/30 01:45:24;;;;;;;0.03;0.03;;;;;;;20.93;63.31;97001.25;5000170;28;20496;-76
2023/06/30 01:47:58;;;;;;;0.10;0.10;;;;;;;20.90;63.29;96999.09;4985447;28;20110;-77
2023/06/30 01:50:29;;;;;;;0.10;0.10;;;;;;;20.92;63.21;97004.25;4990412;28;20133;-75
2023/06/30 01:52:57;;;;;;;0.00;0.00;;;;;;;20.86;63.81;97003.44;4989523;28;20505;-76
2023/06/30 01:55:25;;;;;;;0.00;0.00;;;;;;;20.89;64.15;96998.25;4985955;28;20048;-75
2023/06/30 01:57:52;;;;;;;0.08;0.08;;;;;;;20.79;64.17;96998.28;4985934;28;20426;-73
2023/06/30 02:00:20;;;;;;;0.03;0.03;;;;;;;20.71;64.88;97007.00;4983973;28;20137;-71
2023/06/30 02:02:48;;;;;;;0.00;0.00;;;;;;;20.71;64.90;96998.84;4984898;28;20049;-72
2023/06/30 02:05:17;;;;;;;0.00;0.00;;;;;;;20.67;64.93;97000.47;5007877;28;20065;-72
2023/06/30 02:07:44;;;;;;;0.00;0.00;;;;;;;20.75;64.41;97005.38;4984223;28;20121;-72
2023/06/30 02:10:12;;;;;;;0.00;0.00;;;;;;;20.75;64.56;97001.84;4985967;28;20333;-73
2023/06/30 02:12:40;;;;;;;0.10;0.10;;;;;;;20.76;64.65;97009.72;4983753;28;20510;-73
2023/06/30 02:15:09;;;;;;;0.00;0.00;;;;;;;20.82;64.42;97003.19;4983919;28;20510;-76
2023/06/30 02:17:37;;;;;;;0.00;0.00;;;;;;;20.75;64.40;96999.94;4982969;28;20054;-72
2023/06/30 02:20:06;;;;;;;0.00;0.00;;;;;;;20.86;63.78;97008.88;4985992;28;20117;-73
2023/06/30 02:22:35;;;;;;;0.03;0.03;;;;;;;20.88;63.68;97002.06;4984296;28;20046;-74
2023/06/30 02:25:03;;;;;;;0.10;0.10;;;;;;;20.94;63.28;97008.31;4983765;28;20073;-73
2023/06/30 02:27:31;;;;;;;0.00;0.00;;;;;;;20.85;63.52;96999.94;4982999;28;20047;-73
2023/06/30 02:30:04;;;;;;;0.00;0.00;;;;;;;20.76;64.02;97003.47;4984389;28;20077;-73
2023/06/30 02:32:32;;;;;;;;;;;;;;;20.76;64.15;97000.75;4984195;28;20050;-74
2023/06/30 02:35:00;;;;;;;0.00;0.00;;;;;;;20.69;64.32;96997.50;4984632;28;19925;-73
2023/06/30 02:37:28;;;;;;;0.00;0.00;;;;;;;20.73;63.86;96998.59;4983029;28;20384;-73
2023/06/30 02:39:57;;;;;;;0.00;0.00;;;;;;;20.62;64.87;96997.78;4984377;28;20089;-74
2023/06/30 02:42:24;;;;;;;0.10;0.10;;;;;;;20.61;65.04;97006.19;4983314;28;20042;-74
2023/06/30 02:44:52;;;;;;;0.05;0.05;;;;;;;20.60;64.96;97007.28;4981307;28;20138;-74
2023/06/30 02:47:20;;;;;;;0.00;0.00;;;;;;;20.56;65.19;96998.84;4997686;28;20574;-74
2023/06/30 02:49:48;;;;;;;0.00;0.00;;;;;;;20.52;65.62;96998.63;4998953;28;20562;-74
2023/06/30 02:52:18;;;;;;;0.00;0.00;;;;;;;20.54;65.32;97001.06;4982639;28;20042;-73
2023/06/30 02:54:45;;;;;;;0.00;0.00;;;;;;;20.65;64.86;97004.56;4982088;28;20046;-74
2023/06/30 02:57:14;;;;;;;0.10;0.10;;;;;;;20.62;65.39;97014.06;4981568;28;20050;-74
2023/06/30 02:59:42;;;;;;;0.00;0.00;;;;;;;20.62;65.25;97008.63;4980983;28;20467;-74
2023/06/30 03:02:09;;;;;;;0.00;0.00;;;;;;;20.70;64.82;97004.53;4983678;28;20046;-73
2023/06/30 03:04:37;;;;;;;0.00;0.00;;;;;;;20.70;64.98;96999.94;4984370;28;20056;-73
2023/06/30 03:07:05;;;;;;;0.00;0.00;;;;;;;20.54;65.56;97001.06;4984784;28;20093;-73
2023/06/30 03:09:33;;;;;;;0.00;0.00;;;;;;;20.51;65.91;97007.84;4982853;28;20406;-73
2023/06/30 03:12:01;;;;;;;0.13;0.13;;;;;;;20.41;66.10;97004.31;4983408;28;20050;-73
2023/06/30 03:14:30;;;;;;;0.00;0.00;;;;;;;20.52;65.50;97011.34;4999478;28;20081;-73
2023/06/30 03:16:58;;;;;;;0.00;0.00;;;;;;;20.52;65.58;97012.16;4981654;28;20070;-73
2023/06/30 03:19:25;;;;;;;0.08;0.08;;;;;;;20.44;66.26;97007.31;4981709;28;20085;-74
2023/06/30 03:21:53;;;;;;;0.00;0.00;;;;;;;20.50;65.92;97010.81;4982617;28;20062;-74
2023/06/30 03:24:21;;;;;;;0.05;0.05;;;;;;;20.54;65.65;97011.91;4981664;28;20054;-74
2023/06/30 03:26:48;;;;;;;0.00;0.00;;;;;;;20.41;66.45;97013.25;4982384;28;20081;-74
2023/06/30 03:29:23;;;;;;;0.00;0.00;;;;;;;20.36;66.33;97013.25;4980538;28;20050;-75
2023/06/30 03:31:54;;;;;;;0.00;0.00;;;;;;;20.37;66.38;97009.44;4983111;28;20118;-74
2023/06/30 03:34:21;;;;;;;0.00;0.00;;;;;;;20.35;66.58;97008.91;4980503;28;20231;-74
2023/06/30 03:36:49;;;;;;;0.00;0.00;;;;;;;20.35;66.71;97008.91;4981490;28;20038;-74
2023/06/30 03:39:18;;;;;;;0.03;0.03;;;;;;;20.38;67.02;97008.38;4982366;28;20106;-74
2023/06/30 03:41:46;;;;;;;0.00;0.00;;;;;;;20.39;66.96;97003.75;4981184;28;20567;-74
2023/06/30 03:44:14;;;;;;;0.10;0.10;;;;;;;20.40;67.64;97005.41;4982587;28;20058;-74
2023/06/30 03:46:41;;;;;;;0.00;0.00;;;;;;;20.25;68.75;96999.94;4981526;28;20306;-74
2023/06/30 03:49:10;;;;;;;0.00;0.00;;;;;;;20.28;68.27;96999.41;4997590;28;20050;-74
2023/06/30 03:51:41;;;;;;;0.00;0.00;;;;;;;20.17;69.12;96998.56;4980678;28;20749;-73
2023/06/30 03:54:09;;;;;;;0.00;0.00;;;;;;;20.23;69.03;96994.81;4980335;28;20073;-73
2023/06/30 03:56:36;;;;;;;0.00;0.00;;;;;;;20.30;68.23;96989.91;4979973;28;20490;-73
2023/06/30 03:59:04;;;;;;;0.00;0.00;;;;;;;20.33;67.56;97002.13;4982203;28;20057;-73
2023/06/30 04:01:33;;;;;;;0.10;0.10;;;;;;;20.35;67.40;97002.69;4981580;28;20043;-73
2023/06/30 04:04:01;;;;;;;0.00;0.00;;;;;;;20.32;67.55;97004.00;4981551;28;20421;-73
2023/06/30 04:06:33;;;;;;;0.00;0.00;;;;;;;20.31;67.75;97005.09;4982608;28;20058;-74
2023/06/30 04:09:01;;;;;;;0.00;0.00;;;;;;;20.27;67.97;96997.75;4981914;28;20494;-73
2023/06/30 04:11:28;;;;;;;0.03;0.03;;;;;;;20.24;68.00;96993.72;4982779;28;20122;-73
2023/06/30 04:13:57;;;;;;;0.00;0.00;;;;;;;20.33;67.74;96996.69;4982127;28;20050;-74
2023/06/30 04:16:24;;;;;;;0.03;0.03;;;;;;;20.36;67.54;96993.44;4983160;28;20046;-73
2023/06/30 04:18:52;;;;;;;0.00;0.00;;;;;;;20.31;67.74;96988.03;4982370;28;20046;-75
2023/06/30 04:21:20;;;;;;;0.00;0.00;;;;;;;20.20;68.19;96981.78;4982409;28;20510;-74
2023/06/30 04:23:49;;;;;;;0.00;0.00;;;;;;;20.10;68.69;96977.19;4982748;28;20446;-74
2023/06/30 04:26:17;;;;;;;0.10;0.10;;;;;;;20.07;68.78;96977.72;4982136;28;20054;-74
2023/06/30 04:28:45;;;;;;;0.10;0.10;;;;;;;20.10;68.78;96974.47;4982914;28;20500;-74
2023/06/30 04:31:13;;;;;;;0.00;0.00;;;;;;;20.09;69.17;96972.84;4982122;28;20047;-74
2023/06/30 04:33:40;;;;;;;0.00;0.00;;;;;;;20.11;68.77;96969.88;4982714;28;20038;-74
2023/06/30 04:36:08;;;;;;;0.00;0.00;;;;;;;20.14;68.69;96970.13;4983002;28;20053;-74
2023/06/30 04:38:36;;;;;;;0.03;0.03;;;;;;;20.14;68.43;96966.63;4981922;28;20054;-72
2023/06/30 04:41:05;;;;;;;0.00;0.00;;;;;;;20.16;68.40;96973.38;4982255;28;20039;-73
2023/06/30 04:43:33;;;;;;;0.00;0.00;;;;;;;20.27;68.27;96976.91;4982642;28;20114;-74
2023/06/30 04:46:00;;;;;;;0.22;0.22;;;;;;;20.24;68.72;96966.63;4980028;28;20669;-73
2023/06/30 04:48:28;;;;;;;0.10;0.10;;;;;;;20.30;68.41;96962.00;4980989;28;20524;-74
2023/06/30 04:50:56;;;;;;;0.00;0.00;;;;;;;20.25;68.33;96964.69;4982995;28;20058;-73
2023/06/30 04:53:23;;;;;;;0.08;0.08;;;;;;;20.20;68.41;96968.22;4982225;28;20396;-74
2023/06/30 04:55:51;;;;;;;0.00;0.00;;;;;;;20.27;68.12;96966.06;4980934;28;20051;-74
2023/06/30 04:58:20;;;;;;;0.00;0.00;;;;;;;20.37;67.87;96965.25;4983170;28;20049;-74
2023/06/30 05:00:47;;;;;;;0.00;0.00;;;;;;;20.32;67.67;96959.81;4983020;28;20074;-75
2023/06/30 05:03:15;;;;;;;0.00;0.00;;;;;;;20.34;67.47;96966.63;4983220;28;20459;-75
2023/06/30 05:05:42;;;;;;;0.00;0.00;;;;;;;20.32;67.52;96957.13;4987210;28;20090;-73
2023/06/30 05:08:10;;;;;;;0.00;0.00;;;;;;;20.27;68.20;96957.09;4989117;28;20064;-73
2023/06/30 05:10:38;;;;;;;0.00;0.00;;;;;;;20.27;68.35;96957.91;4988460;28;20039;-73
2023/06/30 05:13:06;;;;;;;0.00;0.00;;;;;;;20.29;68.48;96963.06;4988003;28;20054;-73
2023/06/30 05:15:35;;;;;;;0.00;0.00;;;;;;;20.23;68.49;96958.75;4985526;28;20043;-74
2023/06/30 05:18:02;;;;;;;0.00;0.00;;;;;;;20.19;68.55;96961.19;4985798;28;20056;-74
2023/06/30 05:20:32;;;;;;;0.00;0.00;;;;;;;20.26;68.32;96967.13;4984650;28;20097;-73
2023/06/30 05:22:59;;;;;;;0.00;0.00;;;;;;;20.26;68.32;96967.13;4986585;28;20051;-73
2023/06/30 05:25:27;;;;;;;0.13;0.13;;;;;;;20.30;68.25;96956.56;4985706;28;20052;-75
2023/06/30 05:27:54;;;;;;;0.00;0.00;;;;;;;20.33;68.10;96951.44;4989466;28;20049;-73
2023/06/30 05:30:22;;;;;;;0.00;0.00;;;;;;;20.36;67.82;96950.91;4990945;28;20043;-75
2023/06/30 05:32:51;;;;;;;0.10;0.10;;;;;;;20.40;67.68;96953.88;4991669;28;20039;-73
2023/06/30 05:35:19;;;;;;;0.00;0.00;;;;;;;20.39;67.73;96953.06;4994590;28;20054;-75
2023/06/30 05:37:47;;;;;;;0.00;0.00;;;;;;;20.44;67.83;96941.41;4989665;28;20050;-73
2023/06/30 05:40:15;;;;;;;0.10;0.08;;;;;;;20.54;67.52;96941.41;4985668;28;20542;-73
2023/06/30 05:42:42;;;;;;;0.10;0.10;;;;;;;20.55;67.28;96951.16;4986075;28;20417;-73
2023/06/30 05:45:11;;;;;;;0.20;0.00;;;;;;;20.63;67.36;96952.50;4986008;28;20052;-73
2023/06/30 05:47:38;;;;;;;0.10;0.10;;;;;;;20.70;67.10;96956.53;4985430;28;20052;-73
2023/06/30 05:50:08;;;;;;;0.10;0.10;;;;;;;20.72;66.71;96957.09;4986098;28;20050;-73
2023/06/30 05:52:36;;;;;;;0.00;0.00;;;;;;;20.64;67.13;96963.06;4985370;28;20039;-73
2023/06/30 05:55:04;;;;;;;0.13;0.10;;;;;;;20.65;67.43;96955.75;4986519;28;20053;-74
2023/06/30 05:57:33;;;;;;;0.00;0.00;;;;;;;20.73;67.00;96958.72;4986860;28;20042;-74
2023/06/30 06:00:00;;;;;;;0.10;0.10;;;;;;;20.72;67.14;96959.78;4985739;28;20514;-73
2023/06/30 06:02:38;;;;;;;0.10;0.10;;;;;;;20.74;67.15;96957.63;4985724;28;20103;-74
2023/06/30 06:05:08;;;;;;;0.00;0.00;;;;;;;20.65;67.83;96958.47;4986611;28;20125;-74
2023/06/30 06:07:36;;;;;;;0.22;0.22;;;;;;;20.69;67.52;96959.53;4984243;28;20039;-76
2023/06/30 06:10:05;;;;;;;0.10;0.10;;;;;;;20.71;67.52;96970.91;4990122;28;20415;-73
2023/06/30 06:12:33;;;;;;;0.00;0.00;;;;;;;20.71;67.79;96966.31;4993426;28;20050;-73
2023/06/30 06:15:00;;;;;;;0.00;0.00;;;;;;;20.75;67.31;96967.41;4992562;28;20038;-73
2023/06/30 06:17:28;;;;;;;0.10;0.10;;;;;;;20.91;66.96;96965.44;4990884;28;20110;-74
2023/06/30 06:19:56;;;;;;;0.08;0.03;;;;;;;20.95;66.99;96963.81;4992804;28;20042;-74
2023/06/30 06:22:25;;;;;;;0.00;0.00;;;;;;;20.98;66.86;96965.13;4990662;28;20049;-74
2023/06/30 06:24:53;;;;;;;0.03;0.03;;;;;;;21.09;66.17;96962.09;4994487;28;20054;-75
2023/06/30 06:27:20;;;;;;;0.10;0.10;;;;;;;21.19;65.94;96964.00;4992479;28;20046;-74
2023/06/30 06:29:48;;;;;;;0.00;0.00;;;;;;;21.27;65.91;96968.06;4992077;28;20039;-75
2023/06/30 06:32:18;;;;;;;0.10;0.10;;;;;;;21.22;65.88;96964.28;4992711;28;20050;-74
2023/06/30 06:34:46;;;;;;;0.00;0.00;;;;;;;21.24;65.60;96969.44;4992766;28;20043;-73
2023/06/30 06:37:15;;;;;;;0.08;0.00;;;;;;;21.30;65.72;96965.59;4990756;28;20128;-73
2023/06/30 06:39:44;;;;;;;0.00;0.00;;;;;;;21.44;64.72;96971.22;4989747;28;20046;-73
2023/06/30 06:42:12;;;;;;;0.00;0.00;;;;;;;21.50;65.03;96964.66;4987917;28;20045;-73
2023/06/30 06:44:39;;;;;;;0.00;0.00;;;;;;;21.61;64.44;96960.81;4984231;28;20129;-75
2023/06/30 06:47:44;;;;;;;0.00;0.00;;;;;;;21.50;64.72;96970.09;4984514;28;20406;-74
2023/06/30 06:50:12;;;;;;;0.10;0.00;;;;;;;21.60;64.93;96968.13;4984213;28;20046;-75
2023/06/30 06:52:40;;;;;;;0.10;0.10;;;;;;;21.79;64.35;96973.75;4984901;28;20326;-75
2023/06/30 06:55:09;;;;;;;0.10;0.10;;;;;;;21.94;63.79;96972.81;5001185;28;20565;-75
2023/06/30 06:57:37;;;;;;;0.00;0.00;;;;;;;22.05;63.38;96968.16;4984327;28;20039;-75
2023/06/30 07:00:06;;;;;;;0.00;0.00;;;;;;;21.91;63.11;96979.63;4985496;28;20057;-74
2023/06/30 07:02:33;;;;;;;0.00;0.00;;;;;;;21.98;63.54;96971.22;4984293;28;20035;-74
2023/06/30 07:05:01;;;;;;;0.00;0.00;;;;;;;22.12;62.55;96972.16;4983958;28;20094;-73
2023/06/30 07:07:28;;;;;;;0.10;0.00;;;;;;;22.05;63.43;96979.03;4984102;28;20055;-74
2023/06/30 07:10:00;;;;;;;0.00;0.00;;;;;;;22.14;62.83;96978.13;4983796;28;20057;-73
2023/06/30 07:12:29;;;;;;;0.00;0.00;;;;;;;22.19;62.69;96974.59;4983069;28;20065;-74
2023/06/30 07:14:56;;;;;;;0.10;0.10;;;;;;;22.30;62.41;96967.97;4984797;28;20048;-74
2023/06/30 07:17:24;;;;;;;0.00;0.00;;;;;;;22.44;62.15;96979.78;4984378;28;20046;-74
2023/06/30 07:19:51;;;;;;;0.00;0.00;;;;;;;22.54;61.79;96965.28;4985817;28;20557;-74
2023/06/30 07:22:20;;;;;;;0.00;0.00;;;;;;;22.62;61.04;96960.06;4986310;28;20042;-73
2023/06/30 07:24:48;;;;;;;0.00;0.00;;;;;;;22.76;61.29;96956.66;4990870;28;20057;-73
2023/06/30 07:27:16;;;;;;;0.03;0.03;;;;;;;22.85;59.75;96954.94;4991350;28;20387;-73
2023/06/30 07:29:49;;;;;;;0.10;0.10;;;;;;;22.90;59.68;96952.97;4992065;28;20042;-74
2023/06/30 07:32:16;;;;;;;0.10;0.10;;;;;;;22.92;59.48;96947.25;4989733;28;20062;-74
2023/06/30 07:34:44;;;;;;;0.03;0.03;;;;;;;23.03;59.20;96929.69;4984943;28;20043;-74
2023/06/30 07:37:11;;;;;;;0.00;0.00;;;;;;;23.14;58.96;96941.28;4983026;28;20061;-74
2023/06/30 07:39:39;;;;;;;0.00;0.00;;;;;;;23.32;58.34;96935.03;4982719;28;20042;-74
2023/06/30 07:42:07;;;;;;;0.00;0.00;;;;;;;23.39;57.51;96935.50;4981991;28;20096;-74
2023/06/30 07:44:35;;;;;;;0.00;0.00;;;;;;;23.40;57.54;96945.28;4982526;28;20046;-74
2023/06/30 07:47:04;;;;;;;0.00;0.00;;;;;;;23.62;57.68;96952.91;4981271;28;20047;-73
2023/06/30 07:49:32;;;;;;;0.00;0.00;;;;;;;23.75;56.77;96949.47;4981579;28;20372;-74
2023/06/30 07:51:59;;;;;;;0.00;0.00;;;;;;;23.79;56.45;96961.38;4981716;28;20064;-73
2023/06/30 07:54:27;;;;;;;0.00;0.00;;;;;;;23.91;56.09;96953.59;4982113;28;20417;-75
2023/06/30 07:56:55;;;;;;;0.00;0.00;;;;;;;24.00;56.18;96953.72;4981813;28;20046;-74
2023/06/30 07:59:22;;;;;;;0.00;0.00;;;;;;;24.00;55.69;96946.34;4983405;28;20046;-74
2023/06/30 08:01:50;;;;;;;0.00;0.00;;;;;;;24.15;55.45;96954.31;4981376;28;20053;-75
2023/06/30 08:04:21;;;;;;;0.10;0.10;;;;;;;24.27;53.83;96961.25;4982895;28;20394;-74
2023/06/30 08:06:49;;;;;;;0.03;0.03;;;;;;;24.39;52.80;96967.84;4982413;28;20042;-74
2023/06/30 08:09:17;;;;;;;0.00;0.00;;;;;;;24.47;52.52;96961.72;4982817;28;20049;-75
2023/06/30 08:11:44;;;;;;;0.05;0.05;;;;;;;24.46;52.65;96965.53;4981202;28;20046;-74
2023/06/30 08:14:12;;;;;;;0.03;0.03;;;;;;;24.49;53.03;96967.69;4982159;28;20038;-74
2023/06/30 08:16:40;;;;;;;0.10;0.10;;;;;;;24.50;53.27;96966.53;4982524;28;20046;-74
2023/06/30 08:19:07;;;;;;;0.10;0.10;;;;;;;24.41;53.28;96967.53;4982200;28;20053;-74
2023/06/30 08:21:56;;;;;;;0.00;0.00;;;;;;;24.75;52.88;96961.75;4982794;28;20503;-75
2023/06/30 08:24:24;;;;;;;0.03;0.03;;;;;;;24.74;52.99;96955.47;4982714;28;20525;-74
2023/06/30 08:26:51;;;;;;;0.00;0.00;;;;;;;24.77;53.27;96954.06;4982175;28;20494;-74
2023/06/30 08:29:19;;;;;;;0.00;0.00;;;;;;;24.74;53.15;96954.66;4981869;28;20057;-75
2023/06/30 08:31:47;;;;;;;0.00;0.00;;;;;;;24.88;52.22;96961.78;4981130;28;20051;-75
2023/06/30 08:34:14;;;;;;;0.00;0.00;;;;;;;24.98;51.92;96958.06;4982223;28;20046;-75
2023/06/30 08:36:42;;;;;;;0.00;0.00;;;;;;;25.02;51.24;96956.34;4981122;28;20129;-75
2023/06/30 08:39:13;;;;;;;0.10;0.10;;;;;;;25.02;51.80;96956.34;4981885;28;20061;-74
2023/06/30 08:41:41;;;;;;;0.00;0.00;;;;;;;25.07;51.54;96948.06;4986929;28;20064;-74
2023/06/30 08:44:09;;;;;;;0.00;0.00;;;;;;;25.10;51.31;96947.47;4986441;28;20529;-75
2023/06/30 08:46:37;;;;;;;0.03;0.03;;;;;;;25.14;51.13;96962.09;4985905;28;20069;-75
2023/06/30 08:49:05;;;;;;;0.22;0.00;;;;;;;25.21;51.51;96951.59;4985818;28;20058;-76
2023/06/30 08:51:33;;;;;;;0.05;0.05;;;;;;;25.27;51.31;96948.75;4985414;28;20048;-74
2023/06/30 08:54:00;;;;;;;0.00;0.00;;;;;;;25.33;51.10;96940.16;4984643;28;20050;-74
2023/06/30 08:56:30;;;;;;;0.00;0.00;;;;;;;25.36;50.88;96942.25;4987031;28;20078;-75
2023/06/30 08:58:58;;;;;;;0.10;0.10;;;;;;;25.47;49.94;96940.13;4987562;28;20042;-75
2023/06/30 09:01:26;;;;;;;0.00;0.00;;;;;;;25.38;50.87;96950.97;4986389;28;20050;-76
2023/06/30 09:03:53;;;;;;;0.00;0.00;;;;;;;25.48;50.16;96949.94;4985908;28;20041;-76
2023/06/30 09:06:21;;;;;;;0.00;0.00;;;;;;;25.35;50.92;96948.03;4985545;28;20057;-75
2023/06/30 09:08:53;;;;;;;0.00;0.00;;;;;;;25.42;50.06;96946.53;4985658;28;20047;-75
2023/06/30 09:11:23;;;;;;;0.00;0.00;;;;;;;25.39;49.89;96949.06;4984916;28;20050;-73
2023/06/30 09:13:54;;;;;;;0.00;0.00;;;;;;;24.80;51.53;96946.09;4986215;28;20047;-73
2023/06/30 09:16:22;;;;;;;0.10;0.10;;;;;;;25.00;51.27;96938.66;4984175;28;20045;-73
2023/06/30 09:18:50;;;;;;;0.00;0.00;;;;;;;25.05;50.34;96938.53;4985204;28;20524;-74
2023/06/30 09:21:18;;;;;;;0.08;0.08;;;;;;;25.19;49.63;96939.34;4985178;28;20129;-73
2023/06/30 09:23:51;;;;;;;0.00;0.00;;;;;;;24.99;49.83;96931.56;4985961;28;20446;-73
2023/06/30 09:26:19;;;;;;;0.03;0.03;;;;;;;25.19;49.49;96922.97;4983329;28;20049;-73
2023/06/30 09:28:47;;;;;;;0.00;0.00;;;;;;;25.32;49.21;96929.53;4987182;28;20046;-73
2023/06/30 09:31:16;;;;;;;0.00;0.00;;;;;;;25.55;48.94;96920.25;4984775;28;20405;-73
2023/06/30 09:33:47;;;;;;;0.00;0.00;;;;;;;25.63;48.72;96921.50;5000116;28;20074;-74
2023/06/30 09:36:18;;;;;;;0.10;0.10;;;;;;;25.69;47.99;96923.81;4984845;28;20050;-73
2023/06/30 09:38:45;;;;;;;0.03;0.03;;;;;;;25.75;47.67;96921.78;4985373;28;20053;-73
2023/06/30 09:41:19;;;;;;;0.00;0.00;;;;;;;25.68;47.12;96927.66;4985039;28;20046;-75
2023/06/30 09:43:48;;;;;;;0.00;0.00;;;;;;;25.91;47.16;96928.50;4983991;28;20061;-75
2023/06/30 09:46:20;;;;;;;0.00;0.00;;;;;;;26.11;46.09;96924.47;4985332;28;20082;-74
2023/06/30 09:48:54;;;;;;;0.00;0.00;;;;;;;26.08;45.68;96922.34;4986048;28;20051;-74
2023/06/30 09:51:21;;;;;;;0.00;0.00;;;;;;;26.27;45.55;96932.00;4983557;28;20080;-75
2023/06/30 09:53:52;;;;;;;0.00;0.00;;;;;;;26.16;45.42;96918.88;4986222;28;20121;-75
2023/06/30 09:56:20;;;;;;;0.00;0.00;;;;;;;26.35;45.19;96913.22;4986418;28;20414;-73
2023/06/30 09:58:48;;;;;;;0.00;0.00;;;;;;;26.52;45.13;96914.13;4985434;28;20065;-75
2023/06/30 10:01:23;;;;;;;0.00;0.00;;;;;;;25.76;46.38;96917.91;4985992;28;20460;-75
2023/06/30 10:03:52;;;;;;;0.03;0.03;;;;;;;26.08;46.34;96905.94;4984594;28;20043;-74
2023/06/30 10:06:22;;;;;;;0.00;0.00;;;;;;;26.38;46.02;96912.59;4985527;28;20056;-75
2023/06/30 10:08:50;;;;;;;0.00;0.00;;;;;;;26.47;44.93;96927.16;4984524;28;20050;-75
2023/06/30 10:11:18;;;;;;;0.00;0.00;;;;;;;26.68;44.60;96909.06;4985468;28;20405;-74
2023/06/30 10:13:47;;;;;;;0.00;0.00;;;;;;;26.74;43.95;96907.00;4985012;28;20458;-74
2023/06/30 10:16:15;;;;;;;0.10;0.10;;;;;;;26.94;43.80;96911.94;4984836;28;20126;-74
2023/06/30 10:18:47;;;;;;;0.00;0.00;;;;;;;26.99;43.35;96915.31;4984596;28;20046;-74
2023/06/30 10:21:14;;;;;;;0.00;0.00;;;;;;;27.19;42.87;96905.75;4987585;28;20085;-74
2023/06/30 10:23:43;;;;;;;0.00;0.00;;;;;;;27.21;42.91;96889.75;4986332;28;20057;-75
2023/06/30 10:26:13;;;;;;;0.10;0.10;;;;;;;27.39;42.17;96885.16;4985012;28;20065;-75
2023/06/30 10:28:42;;;;;;;0.00;0.00;;;;;;;27.64;41.98;96880.81;4984837;28;20054;-75
2023/06/30 10:31:10;;;;;;;0.00;0.00;;;;;;;27.70;41.45;96874.06;4984897;28;20406;-73
2023/06/30 10:33:38;;;;;;;0.08;0.08;;;;;;;27.92;41.28;96865.66;4985446;28;20053;-74
2023/06/30 10:36:08;;;;;;;0.00;0.00;;;;;;;27.57;40.61;96864.06;4986490;28;20053;-73
2023/06/30 10:38:37;;;;;;;0.00;0.00;;;;;;;27.71;41.05;96854.53;4985737;28;20061;-74
2023/06/30 10:41:17;;;;;;;0.00;0.00;;;;;;;28.29;39.93;96857.88;4985499;28;20051;-74
2023/06/30 10:44:12;;;;;;;0.00;0.00;;;;;;;28.46;39.18;96846.81;4985950;28;20047;-75
2023/06/30 10:46:44;;;;;;;0.00;0.00;;;;;;;28.07;40.05;96845.94;4985103;28;20521;-74
2023/06/30 10:49:23;;;;;;;0.10;0.10;;;;;;;28.21;39.77;96850.47;4983295;28;20065;-74
2023/06/30 10:51:54;;;;;;;0.00;0.00;;;;;;;27.58;40.96;96849.22;4984746;28;20038;-74
2023/06/30 10:54:23;;;;;;;0.00;0.00;;;;;;;27.49;40.43;96848.38;4984657;28;20038;-74
2023/06/30 10:56:52;;;;;;;0.00;0.00;;;;;;;26.58;42.22;96860.03;4982977;28;20121;-73
2023/06/30 10:59:23;;;;;;;0.00;0.00;;;;;;;26.25;43.38;96865.00;4986330;28;20120;-74
2023/06/30 11:02:11;;;;;;;0.03;0.03;;;;;;;26.29;42.60;96855.06;4982908;28;20046;-74
2023/06/30 11:04:40;;;;;;;0.00;0.00;;;;;;;26.36;43.46;96849.16;4985665;28;20070;-75
2023/06/30 11:07:10;;;;;;;0.00;0.00;;;;;;;26.19;42.96;96852.56;4984887;28;20046;-73
2023/06/30 11:09:59;;;;;;;0.00;0.00;;;;;;;26.27;43.44;96846.34;4983613;28;20039;-73
2023/06/30 11:12:27;;;;;;;0.10;0.10;;;;;;;26.45;43.17;96844.53;4981527;28;20470;-74
2023/06/30 11:14:56;;;;;;;0.00;0.00;;;;;;;26.54;43.68;96843.44;4982041;28;20473;-73
2023/06/30 11:17:24;;;;;;;0.00;0.00;;;;;;;26.66;43.86;96846.41;4981893;28;20035;-73
2023/06/30 11:20:00;;;;;;;0.05;0.05;;;;;;;26.29;44.54;96835.91;4981149;28;20039;-73
2023/06/30 11:22:31;;;;;;;0.03;0.03;;;;;;;26.34;44.69;96837.72;4982001;28;20066;-74
2023/06/30 11:24:58;;;;;;;0.03;0.03;;;;;;;26.36;44.44;96833.56;4984515;28;20113;-72
2023/06/30 11:27:30;;;;;;;0.10;0.00;;;;;;;26.52;44.35;96842.94;4984111;28;20124;-73
2023/06/30 11:30:00;;;;;;;;;;;;;;;26.51;44.06;96830.38;4981829;28;20046;-73
2023/06/30 11:32:29;;;;;;;0.00;0.00;;;;;;;26.48;44.52;96832.94;4982670;28;19932;-73
2023/06/30 11:34:57;;;;;;;0.00;0.00;;;;;;;26.30;44.58;96832.06;4984003;28;20121;-73
2023/06/30 11:37:26;;;;;;;0.00;0.00;;;;;;;26.04;45.33;96842.84;4982523;28;20054;-74
2023/06/30 11:39:57;;;;;;;0.00;0.00;;;;;;;26.04;45.14;96834.63;4983760;28;20057;-74
2023/06/30 11:42:27;;;;;;;0.00;0.00;;;;;;;26.11;45.05;96831.44;4984519;28;20043;-73